»·PEaware :: N710DS KASE-KJAC

N710DS :: KASE-KJAC

FLIGHT INFORMATION

Flight Status: Arrived
Operator: Privately registered:
United States
More flights under this callsign
Pilot: John H. (10732)
Aircraft: Unknown
(B60T)
More flights by this aircraft type
Origin: KASE Aspen-Pitkin Co/Sardy
United States
Destination: KJAC Jackson Hole
United States
More flights between these airports :: More routes between these airports
Route: PITKN4 EKR OCS DNW
File this flight plan on PilotEdge
Remarks:
Altitude:
(Current/Filed)
24,000ft
Speed:
(Current/Filed)
318kts
Departed: 05-Jun-19 04:09 PM
Arrived: 05-Jun-19 05:30 PM
Distance/Time
Traveled:
315nm/1:21
Distance/Time
To Go:
Arrived

Flight Plot

Page will automatically refresh every two minutes.

Flight plan parsing failed; only flown route is shown


Map Options




Map Legend


Flown Route
Filed Route
Departure Airport
Arrival Airport
Navaid (VOR, NDB)
Fix

Horizontal Profiles

Position Reports

Time Latitude Longitude Heading Altitude Ground
Speed
05-Jun-19 15:56 39.222928 -106.866489 88 7823ft 0kts
05-Jun-19 15:57 39.222928 -106.866488 88 7823ft 0kts
05-Jun-19 15:58 39.222928 -106.866488 88 7823ft 0kts
05-Jun-19 15:59 39.222928 -106.866488 88 7823ft 0kts
05-Jun-19 16:00 39.222928 -106.866488 88 7823ft 0kts
05-Jun-19 16:01 39.222928 -106.866488 88 7823ft 0kts
05-Jun-19 16:02 39.222928 -106.866488 88 7823ft 0kts
05-Jun-19 16:03 39.222928 -106.866488 88 7823ft 0kts
05-Jun-19 16:04 39.222081 -106.867127 158 7823ft 9kts
05-Jun-19 16:05 39.218642 -106.865488 159 7823ft 14kts
05-Jun-19 16:06 39.214831 -106.863690 159 7823ft 15kts
05-Jun-19 16:07 39.211836 -106.862983 252 7823ft 0kts
05-Jun-19 16:08 39.219221 -106.867040 340 7863ft 144kts
05-Jun-19 16:09 39.269936 -106.884422 351 10814ft 206kts
05-Jun-19 16:10 39.303095 -106.940616 295 14007ft 193kts
05-Jun-19 16:11 39.323562 -106.992920 296 16801ft 153kts
05-Jun-19 16:12 39.344850 -107.046905 298 18822ft 189kts
05-Jun-19 16:13 39.371360 -107.114251 297 20817ft 227kts
05-Jun-19 16:14 39.382532 -107.189257 256 23805ft 220kts
05-Jun-19 16:15 39.364825 -107.279943 257 24263ft 289kts
05-Jun-19 16:16 39.344669 -107.383431 257 24243ft 303kts
05-Jun-19 16:17 39.323766 -107.489959 257 24233ft 308kts
05-Jun-19 16:18 39.314308 -107.597704 289 24231ft 303kts
05-Jun-19 16:19 39.378112 -107.657196 346 24200ft 297kts
05-Jun-19 16:20 39.455926 -107.690996 341 24200ft 292kts
05-Jun-19 16:21 39.533276 -107.722054 342 24205ft 290kts
05-Jun-19 16:22 39.611758 -107.751659 343 24187ft 296kts
05-Jun-19 16:23 39.690949 -107.781591 342 24195ft 298kts
05-Jun-19 16:24 39.771253 -107.812113 342 24178ft 300kts
05-Jun-19 16:25 39.850981 -107.842488 342 24158ft 299kts
05-Jun-19 16:27 39.931255 -107.873147 342 24150ft 300kts
05-Jun-19 16:28 40.011329 -107.903804 342 24153ft 298kts
05-Jun-19 16:29 40.088964 -107.940235 332 24157ft 296kts
05-Jun-19 16:30 40.161389 -107.991177 331 24152ft 295kts
05-Jun-19 16:31 40.233345 -108.041704 331 24162ft 294kts
05-Jun-19 16:32 40.305931 -108.092702 331 24129ft 295kts
05-Jun-19 16:33 40.378392 -108.143720 331 24131ft 295kts
05-Jun-19 16:34 40.445345 -108.190969 331 24129ft 294kts
05-Jun-19 16:35 40.517358 -108.241910 331 24127ft 295kts
05-Jun-19 16:36 40.589610 -108.293146 331 24127ft 295kts
05-Jun-19 16:37 40.661927 -108.344557 330 24123ft 295kts
05-Jun-19 16:38 40.734096 -108.395989 330 24125ft 295kts
05-Jun-19 16:39 40.806269 -108.447551 330 24127ft 295kts
05-Jun-19 16:40 40.878733 -108.499460 330 24131ft 298kts
05-Jun-19 16:41 40.951563 -108.551753 330 24136ft 292kts
05-Jun-19 16:42 41.020221 -108.601099 330 24153ft 276kts
05-Jun-19 16:43 41.089415 -108.651070 330 24154ft 291kts
05-Jun-19 16:44 41.160993 -108.702852 330 24160ft 293kts
05-Jun-19 16:45 41.233444 -108.755412 330 24165ft 299kts
05-Jun-19 16:45 41.294672 -108.799924 330 24167ft 300kts
05-Jun-19 16:47 41.380203 -108.862258 330 24171ft 301kts
05-Jun-19 16:48 41.453706 -108.915979 330 24169ft 301kts
05-Jun-19 16:48 41.514811 -108.960725 330 24172ft 301kts
05-Jun-19 16:50 41.601114 -109.022277 334 24188ft 301kts
05-Jun-19 16:50 41.665522 -109.058928 335 24178ft 302kts
05-Jun-19 16:51 41.736368 -109.099187 335 24177ft 302kts
05-Jun-19 16:53 41.826657 -109.150711 335 24175ft 302kts
05-Jun-19 16:53 41.890903 -109.187479 335 24179ft 302kts
05-Jun-19 16:54 41.968318 -109.231899 335 24182ft 302kts
05-Jun-19 16:55 42.045706 -109.276425 335 24190ft 302kts
05-Jun-19 16:56 42.122797 -109.320892 335 24188ft 302kts
05-Jun-19 16:57 42.200165 -109.365642 335 24187ft 302kts
05-Jun-19 16:58 42.277597 -109.410547 335 24187ft 302kts
05-Jun-19 16:59 42.355034 -109.455575 335 24183ft 302kts
05-Jun-19 17:00 42.432207 -109.500578 334 24194ft 302kts
05-Jun-19 17:01 42.509694 -109.545881 334 24189ft 302kts
05-Jun-19 17:02 42.586734 -109.591039 334 24187ft 302kts
05-Jun-19 17:03 42.664461 -109.636766 334 23699ft 315kts
05-Jun-19 17:04 42.746612 -109.685223 334 22229ft 317kts
05-Jun-19 17:05 42.823921 -109.730838 334 20747ft 289kts
05-Jun-19 17:06 42.894704 -109.772719 334 19273ft 270kts
05-Jun-19 17:07 42.963040 -109.813313 334 18087ft 268kts
05-Jun-19 17:08 43.030299 -109.853392 334 18012ft 258kts
05-Jun-19 17:09 43.090300 -109.889201 334 18013ft 254kts
05-Jun-19 17:10 43.154272 -109.927444 334 18014ft 246kts
05-Jun-19 17:11 43.216613 -109.964809 334 18014ft 243kts
05-Jun-19 17:12 43.278543 -110.002455 334 18012ft 243kts
05-Jun-19 17:13 43.340555 -110.039856 334 18011ft 244kts
05-Jun-19 17:14 43.402381 -110.077138 334 18011ft 244kts
05-Jun-19 17:15 43.465171 -110.114847 334 18010ft 245kts
05-Jun-19 17:16 43.527771 -110.152711 334 18010ft 245kts
05-Jun-19 17:17 43.590157 -110.190560 334 18012ft 245kts
05-Jun-19 17:18 43.652990 -110.228780 334 17601ft 240kts
05-Jun-19 17:19 43.710098 -110.263501 334 16393ft 220kts
05-Jun-19 17:20 43.768399 -110.299170 334 15174ft 239kts
05-Jun-19 17:21 43.822404 -110.350418 292 13867ft 239kts
05-Jun-19 17:22 43.818443 -110.441355 267 12591ft 241kts
05-Jun-19 17:23 43.812399 -110.533629 254 11293ft 241kts
05-Jun-19 17:24 43.784079 -110.616660 236 10003ft 233kts
05-Jun-19 17:25 43.733741 -110.671351 217 8766ft 226kts
05-Jun-19 17:26 43.685241 -110.699264 202 7946ft 157kts
05-Jun-19 17:27 43.646698 -110.718305 203 7114ft 106kts
05-Jun-19 17:28 43.617276 -110.732841 202 6522ft 99kts
05-Jun-19 17:29 43.610065 -110.735233 111 6454ft 2kts
05-Jun-19 17:30 43.606591 -110.736380 200 6454ft 16kts
05-Jun-19 17:31 43.603246 -110.737453 109 6454ft 12kts
05-Jun-19 17:32 43.602160 -110.737158 209 6454ft 11kts
05-Jun-19 17:33 43.601560 -110.737465 107 6454ft 0kts
05-Jun-19 17:34 43.601560 -110.737465 107 6454ft 0kts

Navigation Log

Ident Type
Flight plan parsing failed, navigation log unavailable